Time;durP1;ratioP1;P1;durP2;ratioP2;P2;SDS_P1;SDS_P2;PMS_P1;PMS_P2;Temp;Humidity;BMP_temperature;BMP_pressure;BME280_temperature;BME280_humidity;BME280_pressure;Samples;Min_cycle;Max_cycle;Signal;HPM_P1;HPM_P2
2023/07/21 07:52:39;;;;;;;;;26.33;25.67;;;;;;;;116952;1209;23199;-37
2023/07/21 07:57:03;;;;;;;;;25.00;24.33;;;;;;;;116371;1196;178801;-26
2023/07/21 08:01:14;;;;;;;;;31.00;24.67;;;;;;;;117067;1199;25864;-32
2023/07/21 08:03:43;;;;;;;;;23.33;22.67;;;;;;;;118222;1186;23813;-25
2023/07/21 08:28:34;;;;;;;;;40.67;32.00;;;;;;;;117282;1198;23355;-38
2023/07/21 09:05:23;;;;;;;;;56.50;44.25;;;;;;;;116857;1202;30307;-50
2023/07/21 09:11:40;;;;;;;;;63.00;42.75;;;;;;;;117305;1208;24056;-63
2023/07/21 09:14:08;;;;;;;;;52.67;42.67;;;;;;;;118017;1196;23324;-46
2023/07/21 10:17:41;;;;;;;;;23.33;22.00;;;;;;;;115205;1200;25034;-56
2023/07/21 10:20:11;;;;;;;;;19.00;19.00;;;;;;;;116994;1186;23219;-56
2023/07/21 10:22:54;;;;;;;;;20.67;20.67;;;;;;;;117050;1186;23296;-55
2023/07/21 10:25:25;;;;;;;;;18.50;18.50;;;;;;;;117084;1185;24434;-54
2023/07/21 10:28:02;;;;;;;;;16.67;16.67;;;;;;;;117017;1186;23417;-55
2023/07/21 10:30:30;;;;;;;;;19.67;19.67;;;;;;;;117418;1182;23595;-62
2023/07/21 10:33:10;;;;;;;;;20.00;19.33;;;;;;;;117386;1183;23302;-58
2023/07/21 10:35:39;;;;;;;;;19.00;19.00;;;;;;;;117433;1182;23342;-56
2023/07/21 10:38:13;;;;;;;;;20.00;20.00;;;;;;;;117428;1182;23674;-57
2023/07/21 10:40:41;;;;;;;;;18.00;18.00;;;;;;;;117367;1182;23581;-60
2023/07/21 10:43:10;;;;;;;;;19.00;17.00;;;;;;;;117408;1182;23951;-57
2023/07/21 10:45:38;;;;;;;;;23.33;20.00;;;;;;;;119350;1190;23249;-55
2023/07/21 10:48:11;;;;;;;;;21.50;19.50;;;;;;;;117606;1182;23508;-59
2023/07/21 10:50:48;;;;;;;;;18.33;18.33;;;;;;;;117416;1182;23627;-57
2023/07/21 10:53:16;;;;;;;;;17.50;17.50;;;;;;;;117432;1182;23619;-57
2023/07/21 10:55:44;;;;;;;;;17.00;17.00;;;;;;;;117673;1186;23239;-57
2023/07/21 10:58:13;;;;;;;;;17.00;16.00;;;;;;;;117383;1182;23564;-57
2023/07/21 11:00:48;;;;;;;;;17.33;17.33;;;;;;;;117395;1183;23720;-57
2023/07/21 11:03:17;;;;;;;;;18.00;15.50;;;;;;;;117726;1180;23387;-59
2023/07/21 11:05:45;;;;;;;;;15.33;15.33;;;;;;;;117747;1180;24400;-57
2023/07/21 11:08:25;;;;;;;;;22.00;21.00;;;;;;;;117705;1180;23549;-57
2023/07/21 11:10:53;;;;;;;;;18.00;18.00;;;;;;;;117751;1180;23354;-57
2023/07/21 11:13:22;;;;;;;;;16.00;16.00;;;;;;;;117783;1180;23559;-56
2023/07/21 11:15:50;;;;;;;;;16.00;14.00;;;;;;;;117710;1180;23254;-57
2023/07/21 11:18:19;;;;;;;;;17.33;16.33;;;;;;;;117746;1179;23455;-56
2023/07/21 11:20:53;;;;;;;;;15.33;15.33;;;;;;;;117727;1180;23865;-57
2023/07/21 11:23:21;;;;;;;;;17.50;17.50;;;;;;;;117696;1180;23286;-57
2023/07/21 11:26:00;;;;;;;;;17.50;17.50;;;;;;;;117525;1181;23736;-58
2023/07/21 11:28:29;;;;;;;;;17.00;17.00;;;;;;;;117750;1180;23555;-57
2023/07/21 11:30:57;;;;;;;;;18.67;18.67;;;;;;;;117728;1179;23436;-59
2023/07/21 11:33:37;;;;;;;;;17.00;17.00;;;;;;;;117727;1180;23618;-58
2023/07/21 11:36:12;;;;;;;;;17.00;17.00;;;;;;;;117691;1180;23419;-56
2023/07/21 11:38:40;;;;;;;;;16.33;15.67;;;;;;;;117622;1179;23305;-57
2023/07/21 11:41:09;;;;;;;;;22.00;18.00;;;;;;;;117599;1179;23382;-57
2023/07/21 11:43:49;;;;;;;;;20.00;18.00;;;;;;;;117625;1180;23429;-58
2023/07/21 11:46:21;;;;;;;;;15.00;15.00;;;;;;;;117624;1180;23314;-58
2023/07/21 11:48:51;;;;;;;;;18.67;17.00;;;;;;;;117734;1179;23768;-60
2023/07/21 11:51:22;;;;;;;;;17.00;17.00;;;;;;;;117691;1180;24080;-56
2023/07/21 11:53:51;;;;;;;;;17.00;17.00;;;;;;;;117617;1180;23511;-56
2023/07/21 11:56:19;;;;;;;;;22.00;18.00;;;;;;;;117706;1180;23204;-60
2023/07/21 11:58:48;;;;;;;;;17.00;17.00;;;;;;;;117745;1180;24299;-58
2023/07/21 12:01:16;;;;;;;;;16.50;16.50;;;;;;;;117707;1180;24246;-58
2023/07/21 12:03:43;;;;;;;;;17.33;17.33;;;;;;;;117704;1180;23601;-57
2023/07/21 12:06:13;;;;;;;;;17.00;17.00;;;;;;;;117745;1179;23887;-57
2023/07/21 12:08:41;;;;;;;;;19.33;18.00;;;;;;;;117732;1180;23106;-57
2023/07/21 12:11:09;;;;;;;;;18.67;17.33;;;;;;;;117673;1180;23900;-59
2023/07/21 12:13:36;;;;;;;;;17.00;17.00;;;;;;;;117694;1180;23300;-57
2023/07/21 12:16:04;;;;;;;;;19.50;18.00;;;;;;;;117700;1180;25013;-56
2023/07/21 12:18:33;;;;;;;;;19.67;19.00;;;;;;;;117742;1180;23622;-58
2023/07/21 12:21:01;;;;;;;;;20.00;20.00;;;;;;;;117729;1179;23524;-58
2023/07/21 12:23:29;;;;;;;;;18.00;18.00;;;;;;;;117701;1180;24265;-57
2023/07/21 12:25:57;;;;;;;;;19.67;19.67;;;;;;;;117708;1180;23641;-57
2023/07/21 12:28:25;;;;;;;;;18.00;18.00;;;;;;;;117683;1180;23560;-57
2023/07/21 12:30:53;;;;;;;;;20.50;20.50;;;;;;;;117710;1180;23861;-58
2023/07/21 12:33:21;;;;;;;;;19.00;19.00;;;;;;;;117721;1180;23798;-56
2023/07/21 12:35:49;;;;;;;;;21.00;20.33;;;;;;;;117733;1180;23549;-56
2023/07/21 12:38:17;;;;;;;;;19.00;19.00;;;;;;;;117700;1180;24277;-59
2023/07/21 12:40:46;;;;;;;;;17.50;17.50;;;;;;;;117725;1180;23426;-57
2023/07/21 12:43:13;;;;;;;;;22.00;18.50;;;;;;;;117597;1180;24012;-57
2023/07/21 12:45:42;;;;;;;;;19.33;19.33;;;;;;;;117662;1179;23366;-58
2023/07/21 12:48:10;;;;;;;;;21.00;17.33;;;;;;;;117644;1180;23637;-58
2023/07/21 12:50:38;;;;;;;;;19.67;17.00;;;;;;;;117683;1180;23599;-56
2023/07/21 12:53:06;;;;;;;;;19.67;17.67;;;;;;;;117689;1180;24383;-56
2023/07/21 12:55:34;;;;;;;;;19.67;19.67;;;;;;;;117695;1180;23894;-57
2023/07/21 12:58:02;;;;;;;;;16.00;16.00;;;;;;;;117636;1180;24780;-56
2023/07/21 13:00:30;;;;;;;;;19.00;19.00;;;;;;;;117632;1180;23592;-57
2023/07/21 13:02:58;;;;;;;;;18.00;18.00;;;;;;;;117711;1180;23734;-57
2023/07/21 13:05:26;;;;;;;;;17.00;17.00;;;;;;;;117433;1187;24262;-56
2023/07/21 13:07:55;;;;;;;;;16.00;16.00;;;;;;;;117708;1180;24485;-57
2023/07/21 13:10:24;;;;;;;;;16.00;16.00;;;;;;;;117744;1180;23653;-56
2023/07/21 13:12:52;;;;;;;;;16.50;16.00;;;;;;;;117706;1180;23626;-57
2023/07/21 13:15:20;;;;;;;;;20.67;20.67;;;;;;;;117535;1180;23507;-57
2023/07/21 13:17:48;;;;;;;;;18.00;18.00;;;;;;;;117680;1181;23135;-58
2023/07/21 13:20:16;;;;;;;;;21.50;21.50;;;;;;;;117754;1180;23448;-58
2023/07/21 13:22:44;;;;;;;;;24.67;22.67;;;;;;;;117675;1180;23445;-56
2023/07/21 13:25:12;;;;;;;;;21.00;19.33;;;;;;;;117516;1181;24893;-57
2023/07/21 13:27:40;;;;;;;;;17.00;17.00;;;;;;;;117722;1180;23750;-58
2023/07/21 13:30:08;;;;;;;;;16.00;16.00;;;;;;;;117644;1180;23971;-57
2023/07/21 13:32:36;;;;;;;;;19.33;18.33;;;;;;;;117612;1180;23065;-57
2023/07/21 13:35:05;;;;;;;;;21.67;19.67;;;;;;;;117409;1180;23680;-57
2023/07/21 13:37:35;;;;;;;;;16.00;16.00;;;;;;;;117646;1180;23810;-60
2023/07/21 13:40:04;;;;;;;;;20.00;20.00;;;;;;;;117641;1179;23904;-55
2023/07/21 13:42:32;;;;;;;;;19.00;15.00;;;;;;;;117721;1180;23560;-57
2023/07/21 13:45:01;;;;;;;;;19.50;19.00;;;;;;;;117691;1180;23457;-58
2023/07/21 13:47:30;;;;;;;;;19.33;18.67;;;;;;;;117589;1180;23358;-57
2023/07/21 13:49:58;;;;;;;;;18.67;18.67;;;;;;;;117731;1193;23549;-59
2023/07/21 13:52:27;;;;;;;;;16.00;16.00;;;;;;;;117706;1180;23346;-55
2023/07/21 13:54:55;;;;;;;;;14.00;14.00;;;;;;;;117720;1180;23711;-57
2023/07/21 13:57:23;;;;;;;;;19.00;19.00;;;;;;;;117735;1180;23311;-59
2023/07/21 13:59:50;;;;;;;;;18.00;17.00;;;;;;;;117747;1180;23494;-59
2023/07/21 14:02:18;;;;;;;;;22.00;21.50;;;;;;;;117701;1180;23460;-60
2023/07/21 14:04:46;;;;;;;;;19.67;19.00;;;;;;;;117514;1180;23560;-59
2023/07/21 14:07:14;;;;;;;;;16.33;16.33;;;;;;;;117726;1180;24565;-63
2023/07/21 14:09:42;;;;;;;;;17.33;17.33;;;;;;;;117753;1180;24425;-62
2023/07/21 14:12:10;;;;;;;;;21.67;21.67;;;;;;;;117737;1179;24330;-57
2023/07/21 14:14:38;;;;;;;;;21.67;20.00;;;;;;;;117730;1180;23469;-57
2023/07/21 14:17:06;;;;;;;;;20.00;20.00;;;;;;;;117696;1180;23377;-57
2023/07/21 14:19:35;;;;;;;;;19.33;19.33;;;;;;;;117733;1180;23536;-58
2023/07/21 14:22:03;;;;;;;;;22.33;22.33;;;;;;;;117741;1180;24257;-58
2023/07/21 14:24:31;;;;;;;;;25.50;25.50;;;;;;;;117713;1180;23310;-58
2023/07/21 14:26:59;;;;;;;;;21.33;21.33;;;;;;;;117721;1180;23732;-61
2023/07/21 14:29:27;;;;;;;;;28.00;24.00;;;;;;;;117773;1180;23243;-60
2023/07/21 14:31:55;;;;;;;;;22.33;22.33;;;;;;;;117750;1180;23426;-58
2023/07/21 14:34:23;;;;;;;;;19.00;19.00;;;;;;;;117732;1180;23528;-61
2023/07/21 14:36:51;;;;;;;;;19.67;19.67;;;;;;;;118063;1186;23738;-59
2023/07/21 14:39:20;;;;;;;;;24.00;22.00;;;;;;;;117760;1180;23221;-58
2023/07/21 14:41:48;;;;;;;;;21.33;21.33;;;;;;;;117743;1181;23235;-59
2023/07/21 14:44:16;;;;;;;;;23.00;22.00;;;;;;;;117718;1180;23737;-56
2023/07/21 14:46:44;;;;;;;;;18.00;18.00;;;;;;;;117756;1180;23521;-59
2023/07/21 14:49:12;;;;;;;;;18.33;18.33;;;;;;;;117754;1180;23445;-58
2023/07/21 14:51:40;;;;;;;;;20.33;19.67;;;;;;;;117717;1181;24485;-57
2023/07/21 14:54:08;;;;;;;;;15.33;15.33;;;;;;;;117739;1180;24639;-55
2023/07/21 14:56:36;;;;;;;;;16.33;16.33;;;;;;;;117725;1180;23576;-56
2023/07/21 14:59:05;;;;;;;;;19.33;18.33;;;;;;;;117706;1180;23443;-58
2023/07/21 15:01:32;;;;;;;;;19.00;19.00;;;;;;;;117708;1180;23953;-57
2023/07/21 15:04:00;;;;;;;;;18.00;18.00;;;;;;;;117698;1180;23548;-56
2023/07/21 15:06:29;;;;;;;;;18.00;18.00;;;;;;;;117451;1180;24149;-56
2023/07/21 15:08:57;;;;;;;;;17.67;17.33;;;;;;;;117641;1180;23684;-57
2023/07/21 15:11:25;;;;;;;;;17.00;17.00;;;;;;;;117698;1179;23584;-56
2023/07/21 15:13:53;;;;;;;;;22.67;20.33;;;;;;;;117710;1180;24280;-57
2023/07/21 15:16:21;;;;;;;;;18.00;16.00;;;;;;;;117677;1180;23531;-56
2023/07/21 15:18:49;;;;;;;;;21.00;21.00;;;;;;;;117762;1180;23255;-56
2023/07/21 15:21:17;;;;;;;;;19.67;18.00;;;;;;;;117710;1179;23718;-57
2023/07/21 15:23:45;;;;;;;;;19.67;19.00;;;;;;;;117707;1180;23601;-58
2023/07/21 15:26:13;;;;;;;;;17.00;17.00;;;;;;;;117746;1180;23383;-58
2023/07/21 15:28:41;;;;;;;;;22.00;22.00;;;;;;;;117721;1180;23321;-59
2023/07/21 15:31:09;;;;;;;;;20.67;20.67;;;;;;;;117721;1180;24034;-62
2023/07/21 15:33:37;;;;;;;;;23.33;18.00;;;;;;;;117648;1180;23795;-60
2023/07/21 15:36:05;;;;;;;;;24.33;23.67;;;;;;;;117706;1180;23828;-59
2023/07/21 15:38:33;;;;;;;;;23.33;21.33;;;;;;;;117738;1180;23435;-61
2023/07/21 15:41:01;;;;;;;;;24.00;19.67;;;;;;;;117711;1180;23680;-63
2023/07/21 15:43:29;;;;;;;;;20.00;20.00;;;;;;;;117753;1180;23775;-62
2023/07/21 15:45:57;;;;;;;;;21.33;20.33;;;;;;;;117739;1180;23273;-64
2023/07/21 15:48:25;;;;;;;;;20.33;19.33;;;;;;;;117773;1180;23607;-60
2023/07/21 15:50:53;;;;;;;;;27.50;22.50;;;;;;;;117735;1180;24047;-59
2023/07/21 15:53:21;;;;;;;;;22.00;21.00;;;;;;;;117730;1180;24024;-61
2023/07/21 15:55:49;;;;;;;;;56.67;40.33;;;;;;;;117734;1193;24173;-60
2023/07/21 15:58:18;;;;;;;;;31.67;30.00;;;;;;;;117766;1180;23468;-61
2023/07/21 16:00:54;;;;;;;;;27.00;25.00;;;;;;;;117712;1180;23598;-59
2023/07/21 16:03:23;;;;;;;;;39.50;26.00;;;;;;;;117729;1180;23178;-60
2023/07/21 16:05:50;;;;;;;;;36.00;30.50;;;;;;;;117747;1180;23538;-61
2023/07/21 16:08:21;;;;;;;;;29.00;23.67;;;;;;;;117688;1180;24220;-67
2023/07/21 16:10:49;;;;;;;;;30.00;23.00;;;;;;;;117607;1180;23979;-58
2023/07/21 16:13:17;;;;;;;;;45.00;26.00;;;;;;;;117616;1180;23317;-61
2023/07/21 16:15:45;;;;;;;;;20.00;19.00;;;;;;;;117728;1179;23477;-57
2023/07/21 16:18:14;;;;;;;;;17.00;16.67;;;;;;;;117747;1180;23376;-62
2023/07/21 16:20:42;;;;;;;;;16.33;16.33;;;;;;;;117716;1180;23403;-58
2023/07/21 16:23:11;;;;;;;;;15.00;15.00;;;;;;;;117708;1179;23623;-59
2023/07/21 16:25:39;;;;;;;;;17.33;17.33;;;;;;;;117768;1180;24083;-58
2023/07/21 16:28:07;;;;;;;;;18.67;18.00;;;;;;;;117717;1180;23154;-60
2023/07/21 16:30:37;;;;;;;;;17.50;15.50;;;;;;;;117690;1180;23533;-59
2023/07/21 16:33:06;;;;;;;;;18.00;17.00;;;;;;;;117734;1180;23278;-59
2023/07/21 16:35:34;;;;;;;;;16.33;16.00;;;;;;;;117711;1180;23556;-59
2023/07/21 16:38:02;;;;;;;;;18.00;17.33;;;;;;;;117742;1187;23606;-58
2023/07/21 16:40:30;;;;;;;;;17.50;17.50;;;;;;;;117712;1179;23578;-59
2023/07/21 16:42:57;;;;;;;;;22.00;21.00;;;;;;;;117684;1180;23318;-61
2023/07/21 16:45:25;;;;;;;;;18.00;16.00;;;;;;;;117721;1180;23601;-61
2023/07/21 16:47:53;;;;;;;;;21.00;21.00;;;;;;;;117689;1180;23647;-60
2023/07/21 16:50:25;;;;;;;;;17.00;17.00;;;;;;;;117739;1180;24662;-60
2023/07/21 16:52:53;;;;;;;;;18.00;16.00;;;;;;;;117745;1180;23590;-60
2023/07/21 16:55:21;;;;;;;;;20.00;19.00;;;;;;;;117720;1180;23465;-61
2023/07/21 16:57:49;;;;;;;;;20.50;19.50;;;;;;;;117798;1179;23813;-60
2023/07/21 17:00:16;;;;;;;;;17.33;17.33;;;;;;;;117772;1180;23458;-60
2023/07/21 17:02:44;;;;;;;;;15.50;15.50;;;;;;;;117723;1180;24041;-62
2023/07/21 17:05:12;;;;;;;;;19.00;19.00;;;;;;;;117711;1180;23432;-61
2023/07/21 17:07:58;;;;;;;;;17.50;17.00;;;;;;;;117773;1179;23586;-67
2023/07/21 17:10:27;;;;;;;;;19.00;19.00;;;;;;;;117760;1180;23294;-65
2023/07/21 17:12:54;;;;;;;;;18.33;18.33;;;;;;;;117712;1180;23924;-63
2023/07/21 17:15:22;;;;;;;;;19.00;19.00;;;;;;;;117743;1181;23415;-61
2023/07/21 17:17:50;;;;;;;;;18.33;18.33;;;;;;;;117734;1180;23180;-60
2023/07/21 17:20:18;;;;;;;;;19.00;19.00;;;;;;;;117768;1180;23476;-60
2023/07/21 17:22:48;;;;;;;;;17.00;17.00;;;;;;;;117742;1180;23632;-64
2023/07/21 17:25:16;;;;;;;;;17.00;16.00;;;;;;;;117780;1179;23308;-60
2023/07/21 17:27:44;;;;;;;;;20.00;19.00;;;;;;;;117747;1180;23480;-62
2023/07/21 17:30:13;;;;;;;;;17.67;17.67;;;;;;;;117725;1180;23579;-60
2023/07/21 17:32:41;;;;;;;;;16.00;16.00;;;;;;;;117718;1180;23724;-61
2023/07/21 17:35:10;;;;;;;;;15.67;14.67;;;;;;;;117749;1180;23392;-61
2023/07/21 17:37:38;;;;;;;;;18.00;16.00;;;;;;;;117734;1181;23627;-60
2023/07/21 17:40:11;;;;;;;;;18.00;16.33;;;;;;;;117775;1180;23515;-60
2023/07/21 17:42:39;;;;;;;;;14.00;14.00;;;;;;;;117770;1180;24030;-61
2023/07/21 17:45:10;;;;;;;;;14.67;14.67;;;;;;;;117721;1180;23827;-58
2023/07/21 17:47:40;;;;;;;;;15.00;15.00;;;;;;;;117742;1179;23589;-59
2023/07/21 17:50:11;;;;;;;;;17.33;17.33;;;;;;;;117757;1180;23285;-57
2023/07/21 17:52:40;;;;;;;;;18.00;17.50;;;;;;;;117748;1180;23334;-59
2023/07/21 17:55:08;;;;;;;;;17.00;15.50;;;;;;;;117782;1180;23226;-62
2023/07/21 17:57:37;;;;;;;;;18.33;17.67;;;;;;;;117778;1180;23532;-57
2023/07/21 18:00:07;;;;;;;;;14.00;14.00;;;;;;;;117761;1180;23386;-57
2023/07/21 18:02:35;;;;;;;;;20.00;15.00;;;;;;;;117804;1180;23556;-57
2023/07/21 18:05:05;;;;;;;;;14.00;14.00;;;;;;;;117767;1180;23313;-57
2023/07/21 18:07:32;;;;;;;;;17.33;17.33;;;;;;;;117702;1180;23697;-59
2023/07/21 18:10:00;;;;;;;;;16.33;16.33;;;;;;;;117701;1179;23371;-56
2023/07/21 18:12:28;;;;;;;;;18.67;16.67;;;;;;;;117501;1180;23677;-54
2023/07/21 18:14:56;;;;;;;;;15.67;15.67;;;;;;;;117749;1181;24546;-57
2023/07/21 18:17:24;;;;;;;;;15.00;14.00;;;;;;;;117836;1180;23612;-56
2023/07/21 18:19:52;;;;;;;;;20.67;20.67;;;;;;;;117823;1180;24434;-57
2023/07/21 18:22:20;;;;;;;;;19.33;19.00;;;;;;;;117826;1180;23189;-55
2023/07/21 18:24:48;;;;;;;;;17.00;17.00;;;;;;;;117843;1180;23733;-56
2023/07/21 18:27:16;;;;;;;;;18.50;18.00;;;;;;;;117838;1189;23650;-57
2023/07/21 18:29:44;;;;;;;;;19.00;19.00;;;;;;;;117877;1179;23202;-57
2023/07/21 18:32:12;;;;;;;;;18.00;18.00;;;;;;;;117811;1180;23745;-61
2023/07/21 18:34:39;;;;;;;;;21.00;20.00;;;;;;;;117858;1180;23476;-56
2023/07/21 18:37:07;;;;;;;;;18.67;18.67;;;;;;;;117867;1180;23488;-58
2023/07/21 18:39:35;;;;;;;;;18.67;18.00;;;;;;;;117865;1180;23620;-58
2023/07/21 18:42:03;;;;;;;;;21.00;21.00;;;;;;;;117840;1180;23439;-56
2023/07/21 18:44:31;;;;;;;;;19.67;17.67;;;;;;;;117859;1179;23541;-55
2023/07/21 18:46:59;;;;;;;;;16.33;15.33;;;;;;;;117870;1180;23980;-58
2023/07/21 18:49:28;;;;;;;;;19.33;18.67;;;;;;;;117811;1180;23446;-57
2023/07/21 18:51:55;;;;;;;;;17.00;15.67;;;;;;;;117824;1179;23382;-56
2023/07/21 18:54:23;;;;;;;;;17.33;17.33;;;;;;;;117812;1180;23623;-56
2023/07/21 18:56:51;;;;;;;;;16.00;16.00;;;;;;;;118164;1180;23484;-57
2023/07/21 18:59:19;;;;;;;;;17.00;17.00;;;;;;;;117846;1180;23071;-57
2023/07/21 19:01:47;;;;;;;;;17.50;17.50;;;;;;;;117856;1180;23567;-57
2023/07/21 19:04:15;;;;;;;;;14.50;14.50;;;;;;;;117839;1180;23626;-61
2023/07/21 19:06:43;;;;;;;;;15.33;14.67;;;;;;;;117863;1180;23368;-54
2023/07/21 19:09:11;;;;;;;;;18.00;18.00;;;;;;;;117835;1179;23286;-57
2023/07/21 19:11:39;;;;;;;;;21.50;16.50;;;;;;;;117829;1180;23816;-56
2023/07/21 19:14:07;;;;;;;;;16.67;16.67;;;;;;;;117855;1179;24358;-57
2023/07/21 19:16:35;;;;;;;;;21.00;18.00;;;;;;;;117825;1180;23484;-56
2023/07/21 19:19:03;;;;;;;;;14.00;14.00;;;;;;;;117807;1179;23260;-58
2023/07/21 19:21:31;;;;;;;;;18.33;17.00;;;;;;;;117809;1180;23330;-56
2023/07/21 19:23:59;;;;;;;;;20.00;18.00;;;;;;;;117831;1180;23528;-55
2023/07/21 19:26:28;;;;;;;;;21.00;20.67;;;;;;;;117822;1180;25094;-57
2023/07/21 19:28:56;;;;;;;;;18.00;18.00;;;;;;;;117854;1180;23591;-57
2023/07/21 19:31:23;;;;;;;;;17.50;17.00;;;;;;;;117861;1180;23558;-57
2023/07/21 19:33:52;;;;;;;;;17.33;17.33;;;;;;;;117869;1179;23466;-57
2023/07/21 19:36:20;;;;;;;;;18.50;18.50;;;;;;;;117837;1179;23291;-56
2023/07/21 19:38:48;;;;;;;;;22.33;19.00;;;;;;;;117817;1179;23657;-57
2023/07/21 19:41:17;;;;;;;;;17.33;17.33;;;;;;;;117716;1180;23659;-57
2023/07/21 19:43:45;;;;;;;;;17.33;16.33;;;;;;;;117860;1180;23566;-58
2023/07/21 19:46:13;;;;;;;;;19.33;18.00;;;;;;;;117820;1180;23767;-57
2023/07/21 19:48:41;;;;;;;;;20.67;19.33;;;;;;;;117871;1179;23475;-57
2023/07/21 19:51:13;;;;;;;;;18.00;18.00;;;;;;;;117832;1180;23800;-57
2023/07/21 19:53:41;;;;;;;;;18.00;18.00;;;;;;;;117829;1180;23628;-59
2023/07/21 19:56:10;;;;;;;;;18.00;17.00;;;;;;;;117943;1179;23568;-59
2023/07/21 19:58:38;;;;;;;;;18.00;18.00;;;;;;;;117863;1187;23536;-58
2023/07/21 20:01:06;;;;;;;;;18.00;18.00;;;;;;;;117841;1180;23945;-58
2023/07/21 20:03:34;;;;;;;;;18.00;18.00;;;;;;;;117833;1180;23633;-59
2023/07/21 20:06:07;;;;;;;;;19.33;19.33;;;;;;;;117805;1180;23768;-59
2023/07/21 20:08:34;;;;;;;;;18.67;18.67;;;;;;;;117834;1180;24075;-57
2023/07/21 20:11:05;;;;;;;;;17.67;17.67;;;;;;;;117794;1179;24382;-55
2023/07/21 20:13:33;;;;;;;;;18.00;18.00;;;;;;;;117795;1180;23236;-58
2023/07/21 20:16:01;;;;;;;;;18.33;17.33;;;;;;;;117873;1180;23574;-58
2023/07/21 20:18:29;;;;;;;;;18.67;18.00;;;;;;;;117808;1180;22999;-58
2023/07/21 20:20:57;;;;;;;;;16.50;16.50;;;;;;;;117834;1192;23275;-58
2023/07/21 20:23:24;;;;;;;;;17.67;17.67;;;;;;;;117838;1180;23375;-57
2023/07/21 20:25:53;;;;;;;;;16.33;16.33;;;;;;;;117805;1180;23298;-58
2023/07/21 20:28:21;;;;;;;;;18.67;16.33;;;;;;;;117835;1179;23383;-58
2023/07/21 20:30:49;;;;;;;;;20.00;20.00;;;;;;;;117803;1180;23697;-56
2023/07/21 20:33:17;;;;;;;;;17.00;16.33;;;;;;;;117782;1180;23309;-57
2023/07/21 20:35:45;;;;;;;;;18.33;18.33;;;;;;;;117834;1180;24770;-59
2023/07/21 20:38:13;;;;;;;;;16.67;16.67;;;;;;;;117802;1180;23651;-57
2023/07/21 20:40:42;;;;;;;;;19.00;19.00;;;;;;;;117845;1180;24264;-58
2023/07/21 20:43:10;;;;;;;;;17.33;17.33;;;;;;;;117822;1179;23488;-59
2023/07/21 20:45:40;;;;;;;;;17.50;14.50;;;;;;;;117817;1179;23639;-59
2023/07/21 20:48:08;;;;;;;;;16.00;14.00;;;;;;;;117846;1179;23449;-58
2023/07/21 20:50:36;;;;;;;;;17.00;16.00;;;;;;;;117816;1179;24015;-57
2023/07/21 20:53:04;;;;;;;;;15.00;15.00;;;;;;;;117843;1180;23515;-58
2023/07/21 20:55:32;;;;;;;;;17.67;14.00;;;;;;;;117819;1180;24777;-58
2023/07/21 20:58:00;;;;;;;;;14.00;14.00;;;;;;;;117819;1179;24192;-59
2023/07/21 21:00:29;;;;;;;;;13.67;13.67;;;;;;;;117863;1179;23602;-60
2023/07/21 21:02:57;;;;;;;;;12.00;11.33;;;;;;;;117855;1180;23518;-63
2023/07/21 21:05:25;;;;;;;;;13.33;13.33;;;;;;;;117860;1179;24333;-56
2023/07/21 21:07:53;;;;;;;;;14.33;14.33;;;;;;;;117884;1179;23507;-57
2023/07/21 21:10:21;;;;;;;;;13.00;13.00;;;;;;;;117889;1180;23518;-56
2023/07/21 21:12:49;;;;;;;;;15.00;15.00;;;;;;;;117854;1179;23442;-57
2023/07/21 21:15:17;;;;;;;;;14.00;14.00;;;;;;;;117922;1179;23338;-63
2023/07/21 21:17:45;;;;;;;;;15.33;14.33;;;;;;;;117864;1179;23558;-59
2023/07/21 21:20:13;;;;;;;;;16.67;15.33;;;;;;;;117857;1179;23389;-61
2023/07/21 21:22:41;;;;;;;;;14.33;12.67;;;;;;;;117830;1179;23677;-57
2023/07/21 21:25:09;;;;;;;;;15.00;15.00;;;;;;;;117879;1179;23724;-57
2023/07/21 21:27:36;;;;;;;;;14.00;13.33;;;;;;;;117810;1180;23474;-58
2023/07/21 21:30:05;;;;;;;;;15.67;15.67;;;;;;;;117754;1180;23578;-57
2023/07/21 21:32:33;;;;;;;;;13.00;13.00;;;;;;;;117825;1179;23748;-58
2023/07/21 21:35:01;;;;;;;;;13.33;13.00;;;;;;;;117911;1179;23283;-59
2023/07/21 21:37:29;;;;;;;;;16.00;16.00;;;;;;;;117790;1180;23333;-59
2023/07/21 21:39:57;;;;;;;;;14.00;13.00;;;;;;;;117808;1180;24221;-57
2023/07/21 21:42:24;;;;;;;;;13.33;12.33;;;;;;;;117766;1179;23090;-57
2023/07/21 21:44:52;;;;;;;;;14.67;14.67;;;;;;;;117847;1180;23302;-55
2023/07/21 21:47:20;;;;;;;;;18.00;18.00;;;;;;;;117846;1180;24114;-57
2023/07/21 21:49:48;;;;;;;;;14.00;14.00;;;;;;;;117769;1179;23644;-57
2023/07/21 21:52:17;;;;;;;;;18.00;16.33;;;;;;;;117808;1180;23463;-57
2023/07/21 21:54:45;;;;;;;;;13.33;13.33;;;;;;;;117861;1179;23826;-56
2023/07/21 21:57:13;;;;;;;;;21.50;18.50;;;;;;;;117815;1179;23592;-59
2023/07/21 21:59:41;;;;;;;;;17.00;15.67;;;;;;;;117805;1180;24593;-58
2023/07/21 22:02:09;;;;;;;;;17.00;17.00;;;;;;;;117797;1180;23432;-57
2023/07/21 22:04:37;;;;;;;;;16.67;16.00;;;;;;;;117846;1180;24348;-55
2023/07/21 22:07:05;;;;;;;;;19.00;16.00;;;;;;;;117865;1180;23289;-58
2023/07/21 22:09:32;;;;;;;;;16.00;16.00;;;;;;;;117810;1180;23709;-56
2023/07/21 22:12:01;;;;;;;;;12.50;12.50;;;;;;;;117806;1180;23254;-57
2023/07/21 22:14:29;;;;;;;;;17.00;17.00;;;;;;;;117837;1180;23263;-56
2023/07/21 22:16:58;;;;;;;;;16.00;15.00;;;;;;;;117837;1180;23522;-58
2023/07/21 22:19:25;;;;;;;;;15.67;15.00;;;;;;;;117828;1180;23523;-56
2023/07/21 22:21:54;;;;;;;;;18.67;17.67;;;;;;;;117856;1180;23459;-57
2023/07/21 22:24:21;;;;;;;;;18.00;18.00;;;;;;;;117830;1180;23881;-58
2023/07/21 22:26:50;;;;;;;;;20.67;18.33;;;;;;;;118199;1179;23451;-60
2023/07/21 22:29:18;;;;;;;;;18.50;17.00;;;;;;;;117823;1179;23541;-59
2023/07/21 22:31:45;;;;;;;;;15.00;15.00;;;;;;;;117842;1179;23270;-63
2023/07/21 22:34:13;;;;;;;;;18.00;16.00;;;;;;;;117857;1179;23606;-59
2023/07/21 22:36:41;;;;;;;;;18.00;18.00;;;;;;;;117807;1181;23748;-59
2023/07/21 22:39:09;;;;;;;;;18.00;18.00;;;;;;;;117850;1180;23289;-59
2023/07/21 22:41:37;;;;;;;;;20.50;20.50;;;;;;;;117803;1181;24568;-57
2023/07/21 22:44:04;;;;;;;;;20.50;20.00;;;;;;;;117808;1180;23867;-58
2023/07/21 22:46:33;;;;;;;;;19.50;19.50;;;;;;;;117872;1180;23560;-58
2023/07/21 22:49:03;;;;;;;;;22.00;21.00;;;;;;;;117822;1179;23447;-61
2023/07/21 22:51:32;;;;;;;;;16.67;16.67;;;;;;;;117820;1180;23618;-60
2023/07/21 22:54:00;;;;;;;;;15.33;15.33;;;;;;;;117890;1179;23509;-58
2023/07/21 22:56:29;;;;;;;;;20.50;20.50;;;;;;;;117818;1180;23939;-64
2023/07/21 22:58:56;;;;;;;;;18.33;18.00;;;;;;;;117878;1180;24277;-58
2023/07/21 23:01:24;;;;;;;;;21.00;21.00;;;;;;;;117803;1180;23499;-57
2023/07/21 23:03:52;;;;;;;;;19.00;19.00;;;;;;;;117817;1180;24156;-57
2023/07/21 23:06:20;;;;;;;;;18.33;18.33;;;;;;;;117823;1179;23643;-58
2023/07/21 23:08:48;;;;;;;;;17.67;17.00;;;;;;;;117861;1180;23510;-60
2023/07/21 23:11:16;;;;;;;;;19.00;19.00;;;;;;;;117849;1180;23752;-58
2023/07/21 23:13:44;;;;;;;;;20.00;19.33;;;;;;;;117811;1180;23417;-57
2023/07/21 23:16:13;;;;;;;;;19.50;18.00;;;;;;;;117856;1179;23576;-64
2023/07/21 23:18:41;;;;;;;;;20.67;19.67;;;;;;;;117794;1180;24667;-63
2023/07/21 23:21:09;;;;;;;;;20.00;18.00;;;;;;;;117836;1179;23574;-60
2023/07/21 23:23:36;;;;;;;;;19.00;18.33;;;;;;;;117819;1179;23359;-59
2023/07/21 23:26:05;;;;;;;;;20.33;20.00;;;;;;;;117821;1179;23618;-58
2023/07/21 23:28:34;;;;;;;;;21.50;19.00;;;;;;;;117854;1179;23580;-61
2023/07/21 23:31:05;;;;;;;;;21.00;17.00;;;;;;;;117879;1179;23314;-57
2023/07/21 23:33:33;;;;;;;;;21.00;19.50;;;;;;;;117798;1179;23667;-56
2023/07/21 23:36:01;;;;;;;;;20.00;19.00;;;;;;;;117794;1180;23351;-60
2023/07/21 23:38:29;;;;;;;;;20.50;20.50;;;;;;;;117806;1180;23471;-58
2023/07/21 23:40:57;;;;;;;;;21.67;20.00;;;;;;;;117872;1180;23381;-57
2023/07/21 23:43:25;;;;;;;;;18.67;18.00;;;;;;;;117856;1179;23268;-57
2023/07/21 23:45:53;;;;;;;;;25.00;22.50;;;;;;;;117875;1180;23241;-58
2023/07/21 23:48:26;;;;;;;;;23.50;22.00;;;;;;;;117849;1192;23351;-58
2023/07/21 23:50:54;;;;;;;;;21.33;21.33;;;;;;;;117867;1180;23283;-55
2023/07/21 23:53:22;;;;;;;;;20.33;20.33;;;;;;;;117844;1179;23323;-58
2023/07/21 23:55:50;;;;;;;;;17.00;17.00;;;;;;;;117831;1180;24564;-58
2023/07/21 23:58:18;;;;;;;;;21.33;20.33;;;;;;;;117786;1180;23571;-58
